Time;durP1;ratioP1;P1;durP2;ratioP2;P2;SDS_P1;SDS_P2;PMS_P1;PMS_P2;Temp;Humidity;BMP_temperature;BMP_pressure;BME280_temperature;BME280_humidity;BME280_pressure;Samples;Min_cycle;Max_cycle;Signal;HPM_P1;HPM_P2
2021/09/10 00:02:03;;;;;;;12.80;10.27;;;22.20;99.90;;;;;;5072663;28;20410;-75
2021/09/10 00:04:29;;;;;;;12.43;9.88;;;22.20;99.90;;;;;;5073550;28;20082;-75
2021/09/10 00:06:54;;;;;;;10.75;9.45;;;22.20;99.90;;;;;;5072010;28;20358;-75
2021/09/10 00:09:20;;;;;;;31.02;10.38;;;22.20;99.90;;;;;;5064679;28;20044;-76
2021/09/10 00:11:46;;;;;;;12.15;9.88;;;22.20;99.90;;;;;;5066972;28;20036;-75
2021/09/10 00:14:12;;;;;;;11.13;9.77;;;22.20;99.90;;;;;;5067350;28;20025;-74
2021/09/10 00:16:37;;;;;;;13.13;9.90;;;22.20;99.90;;;;;;5070465;28;20519;-74
2021/09/10 00:19:04;;;;;;;11.23;9.15;;;22.20;99.90;;;;;;5070298;28;20028;-74
2021/09/10 00:21:30;;;;;;;12.45;10.13;;;22.00;99.90;;;;;;5070628;28;20073;-75
2021/09/10 00:23:55;;;;;;;11.52;10.30;;;22.10;99.90;;;;;;5068180;28;20170;-75
2021/09/10 00:26:21;;;;;;;11.88;10.10;;;22.20;99.90;;;;;;5053126;28;20016;-74
2021/09/10 00:28:47;;;;;;;12.18;10.05;;;22.20;99.90;;;;;;5070760;28;20031;-80
2021/09/10 00:31:13;;;;;;;11.45;10.07;;;22.00;99.90;;;;;;5068422;28;20056;-74
2021/09/10 00:33:39;;;;;;;11.45;10.35;;;22.00;99.90;;;;;;5048043;28;20098;-75
2021/09/10 00:36:04;;;;;;;12.18;10.98;;;22.10;99.90;;;;;;5069032;28;20496;-76
2021/09/10 00:38:30;;;;;;;10.60;9.50;;;22.00;99.90;;;;;;5070838;28;20025;-74
2021/09/10 00:40:57;;;;;;;11.63;10.40;;;22.10;99.90;;;;;;5062212;28;20025;-74
2021/09/10 00:43:23;;;;;;;12.63;10.63;;;22.10;99.90;;;;;;5068145;28;20024;-74
2021/09/10 00:45:49;;;;;;;12.05;9.30;;;22.00;99.90;;;;;;5064644;28;20017;-76
2021/09/10 00:48:19;;;;;;;14.68;10.35;;;22.00;99.90;;;;;;5063486;28;20530;-75
2021/09/10 00:50:45;;;;;;;12.25;10.20;;;22.00;99.90;;;;;;5065512;28;20090;-76
2021/09/10 00:53:10;;;;;;;11.23;9.35;;;22.00;99.90;;;;;;5064121;28;20024;-74
2021/09/10 00:55:37;;;;;;;15.77;11.77;;;22.00;99.90;;;;;;5067764;28;20484;-74
2021/09/10 00:58:03;;;;;;;16.23;11.90;;;22.00;99.90;;;;;;5069728;28;20070;-74
2021/09/10 01:00:29;;;;;;;16.13;11.95;;;22.00;99.90;;;;;;5067770;28;20438;-75
2021/09/10 01:02:55;;;;;;;11.35;9.98;;;21.90;99.90;;;;;;5067863;28;20039;-75
2021/09/10 01:05:21;;;;;;;15.07;11.43;;;21.90;99.90;;;;;;5059612;28;20028;-75
2021/09/10 01:07:48;;;;;;;15.00;11.30;;;21.80;99.90;;;;;;5066182;28;20028;-74
2021/09/10 01:10:16;;;;;;;14.88;11.73;;;21.80;99.90;;;;;;5065938;28;20032;-74
2021/09/10 01:12:42;;;;;;;11.32;10.07;;;21.90;99.90;;;;;;5070541;28;20095;-76
2021/09/10 01:15:09;;;;;;;14.38;9.50;;;21.90;99.90;;;;;;5064876;28;20120;-74
2021/09/10 01:17:36;;;;;;;11.95;10.75;;;21.90;99.90;;;;;;5065676;28;20054;-74
2021/09/10 01:20:03;;;;;;;14.10;11.43;;;21.80;99.90;;;;;;5052335;28;20485;-75
2021/09/10 01:22:29;;;;;;;15.20;12.13;;;21.90;99.90;;;;;;5065131;28;20037;-75
2021/09/10 01:25:15;;;;;;;10.85;9.75;;;21.90;99.90;;;;;;5064673;28;20505;-75
2021/09/10 01:27:45;;;;;;;13.02;9.75;;;21.80;99.90;;;;;;5064337;28;20021;-74
2021/09/10 01:30:13;;;;;;;14.10;11.35;;;21.80;99.90;;;;;;5062537;28;20032;-75
2021/09/10 01:32:38;;;;;;;16.65;12.88;;;21.80;99.90;;;;;;5066305;28;20524;-76
2021/09/10 01:35:05;;;;;;;18.35;12.18;;;21.80;99.90;;;;;;5064919;28;20125;-74
2021/09/10 01:37:31;;;;;;;19.45;12.95;;;21.80;99.90;;;;;;5068904;28;20117;-75
2021/09/10 01:39:56;;;;;;;16.23;13.07;;;21.80;99.90;;;;;;5066862;28;20384;-75
2021/09/10 01:42:22;;;;;;;15.50;13.30;;;21.80;99.90;;;;;;5063195;28;20060;-75
2021/09/10 01:44:48;;;;;;;17.10;12.98;;;21.70;99.90;;;;;;5066345;28;20024;-75
2021/09/10 01:47:13;;;;;;;17.92;12.52;;;21.70;99.90;;;;;;5061971;28;20440;-75
2021/09/10 01:49:39;;;;;;;17.05;12.57;;;21.80;99.90;;;;;;5052371;28;20762;-75
2021/09/10 01:52:05;;;;;;;15.23;12.48;;;21.80;99.90;;;;;;5068780;28;20059;-75
2021/09/10 01:54:30;;;;;;;15.73;12.13;;;21.60;99.90;;;;;;5063124;28;20500;-74
2021/09/10 01:56:56;;;;;;;16.45;12.57;;;21.70;99.90;;;;;;5064545;28;20036;-74
2021/09/10 01:59:22;;;;;;;18.08;13.82;;;21.70;99.90;;;;;;5067735;28;20020;-75
2021/09/10 02:01:47;;;;;;;15.07;12.02;;;21.70;99.90;;;;;;5064048;28;20473;-76
2021/09/10 02:04:13;;;;;;;17.33;13.15;;;21.70;99.90;;;;;;5070298;28;20032;-75
2021/09/10 02:06:39;;;;;;;13.05;11.25;;;21.70;99.90;;;;;;5071232;28;20025;-75
2021/09/10 02:09:04;;;;;;;16.88;13.32;;;21.70;99.90;;;;;;5068556;28;20378;-80
2021/09/10 02:11:30;;;;;;;18.63;12.90;;;21.70;99.90;;;;;;5045526;28;20064;-78
2021/09/10 02:13:56;;;;;;;17.92;13.40;;;21.70;99.90;;;;;;5067701;28;20020;-77
2021/09/10 02:16:21;;;;;;;16.92;14.15;;;21.70;99.90;;;;;;5066501;28;20151;-75
2021/09/10 02:18:47;;;;;;;18.27;13.80;;;21.70;99.90;;;;;;5069172;28;20048;-74
2021/09/10 02:21:13;;;;;;;16.83;14.43;;;21.70;99.90;;;;;;5051635;28;20073;-75
2021/09/10 02:23:41;;;;;;;15.98;13.98;;;21.70;99.90;;;;;;5070410;28;20114;-75
2021/09/10 02:26:06;;;;;;;18.77;14.68;;;21.60;99.90;;;;;;5067733;28;20056;-75
2021/09/10 02:28:32;;;;;;;19.65;14.80;;;21.60;99.90;;;;;;5051959;28;20044;-76
2021/09/10 02:30:58;;;;;;;17.08;13.65;;;21.60;99.90;;;;;;5070797;28;20389;-75
2021/09/10 02:33:24;;;;;;;16.20;14.32;;;21.60;99.90;;;;;;5060910;28;20469;-75
2021/09/10 02:35:49;;;;;;;20.42;14.32;;;21.60;99.90;;;;;;5067659;28;20029;-75
2021/09/10 02:38:15;;;;;;;19.17;13.50;;;21.60;99.90;;;;;;5060530;28;20104;-74
2021/09/10 02:40:41;;;;;;;23.20;14.25;;;21.50;99.90;;;;;;5051113;28;20021;-75
2021/09/10 02:43:07;;;;;;;17.63;14.63;;;21.60;99.90;;;;;;5048654;28;20067;-76
2021/09/10 02:45:33;;;;;;;18.13;14.35;;;21.50;99.90;;;;;;5067588;28;20017;-78
2021/09/10 02:47:58;;;;;;;18.80;13.63;;;21.40;99.90;;;;;;5050289;28;20025;-75
2021/09/10 02:50:24;;;;;;;18.20;13.05;;;21.40;99.90;;;;;;5063961;28;20082;-74
2021/09/10 02:52:53;;;;;;;17.38;14.07;;;21.30;99.90;;;;;;5066725;28;20484;-76
2021/09/10 02:55:19;;;;;;;15.70;13.95;;;21.40;99.90;;;;;;5065217;28;20025;-75
2021/09/10 02:57:45;;;;;;;15.98;14.18;;;21.40;99.90;;;;;;5070661;28;20046;-74
2021/09/10 03:00:11;;;;;;;17.35;13.07;;;21.40;99.90;;;;;;5068355;28;20035;-75
2021/09/10 03:02:37;;;;;;;18.73;14.38;;;21.40;99.90;;;;;;5066467;28;20013;-75
2021/09/10 03:05:04;;;;;;;16.63;13.88;;;21.40;99.90;;;;;;5061239;28;20564;-75
2021/09/10 03:07:30;;;;;;;17.40;14.60;;;21.40;99.90;;;;;;5064890;28;20025;-75
2021/09/10 03:09:56;;;;;;;18.92;13.98;;;21.30;99.90;;;;;;5066171;28;20040;-75
2021/09/10 03:12:21;;;;;;;15.60;13.90;;;21.30;99.90;;;;;;5047031;28;20052;-75
2021/09/10 03:14:47;;;;;;;20.27;14.75;;;21.30;99.90;;;;;;5056574;28;20021;-75
2021/09/10 03:17:12;;;;;;;18.20;14.02;;;21.30;99.90;;;;;;5066443;28;20563;-75
2021/09/10 03:19:40;;;;;;;14.32;12.35;;;21.30;99.90;;;;;;5062594;28;20924;-76
2021/09/10 03:22:05;;;;;;;18.88;15.30;;;21.30;99.90;;;;;;5062985;28;20021;-74
2021/09/10 03:24:31;;;;;;;15.68;13.00;;;21.30;99.90;;;;;;5072379;28;20032;-75
2021/09/10 03:26:58;;;;;;;17.88;12.88;;;21.30;99.90;;;;;;5050930;28;20021;-76
2021/09/10 03:29:23;;;;;;;20.73;15.30;;;21.20;99.90;;;;;;5060492;28;20382;-75
2021/09/10 03:31:49;;;;;;;19.00;15.00;;;21.20;99.90;;;;;;5069359;28;20081;-78
2021/09/10 03:34:15;;;;;;;17.88;13.10;;;21.20;99.90;;;;;;5053486;28;20690;-75
2021/09/10 03:36:40;;;;;;;23.40;14.27;;;21.20;99.90;;;;;;5070844;28;20110;-81
2021/09/10 03:39:06;;;;;;;18.33;13.32;;;21.20;99.90;;;;;;5063313;28;20015;-81
2021/09/10 03:41:32;;;;;;;16.77;12.93;;;21.20;99.90;;;;;;5071077;28;20074;-81
2021/09/10 03:43:58;;;;;;;16.45;12.20;;;21.10;99.90;;;;;;5070361;28;20031;-81
2021/09/10 03:46:24;;;;;;;16.70;13.55;;;21.10;99.90;;;;;;5066613;28;20024;-81
2021/09/10 03:48:50;;;;;;;13.05;11.50;;;21.20;99.90;;;;;;5070445;28;20025;-82
2021/09/10 03:51:16;;;;;;;21.73;13.38;;;21.20;99.90;;;;;;5065709;28;20044;-81
2021/09/10 03:53:42;;;;;;;15.60;13.20;;;21.20;99.90;;;;;;5067168;28;20063;-81
2021/09/10 03:56:08;;;;;;;18.20;13.93;;;21.20;99.90;;;;;;5065083;28;20036;-75
2021/09/10 03:58:34;;;;;;;19.15;15.05;;;21.00;99.90;;;;;;5053762;28;20093;-80
2021/09/10 04:01:00;;;;;;;15.32;13.70;;;21.10;99.90;;;;;;5066969;28;20203;-76
2021/09/10 04:03:25;;;;;;;15.45;13.23;;;21.10;99.90;;;;;;5068319;28;20024;-82
2021/09/10 04:05:51;;;;;;;16.98;11.52;;;21.10;99.90;;;;;;5065273;28;20029;-80
2021/09/10 04:08:17;;;;;;;18.85;13.25;;;21.10;99.90;;;;;;5070199;28;20545;-81
2021/09/10 04:10:43;;;;;;;14.60;13.10;;;21.10;99.90;;;;;;5070435;28;20056;-81
2021/09/10 04:13:09;;;;;;;17.48;12.73;;;21.10;99.90;;;;;;5070869;28;20013;-79
2021/09/10 04:15:35;;;;;;;22.67;14.50;;;21.00;99.90;;;;;;5068964;28;20082;-81
2021/09/10 04:18:02;;;;;;;16.75;12.73;;;21.10;99.90;;;;;;5070504;28;20485;-79
2021/09/10 04:20:28;;;;;;;15.98;12.90;;;21.10;99.90;;;;;;5069894;28;20028;-79
2021/09/10 04:22:54;;;;;;;20.42;13.85;;;21.10;99.90;;;;;;5050893;28;20044;-81
2021/09/10 04:25:20;;;;;;;14.10;12.57;;;21.10;99.90;;;;;;5051239;28;20060;-80
2021/09/10 04:27:46;;;;;;;17.50;13.02;;;21.10;99.90;;;;;;5064985;28;20382;-80
2021/09/10 04:30:12;;;;;;;15.80;12.35;;;21.10;99.90;;;;;;5063776;28;20027;-78
2021/09/10 04:32:39;;;;;;;15.50;13.02;;;21.10;99.90;;;;;;5065067;28;20129;-80
2021/09/10 04:35:06;;;;;;;13.93;12.32;;;21.10;99.90;;;;;;5066964;28;20089;-81
2021/09/10 04:37:32;;;;;;;15.75;12.52;;;21.10;99.90;;;;;;5069309;28;20492;-80
2021/09/10 04:39:57;;;;;;;18.30;13.30;;;21.10;99.90;;;;;;5070127;28;20033;-79
2021/09/10 04:42:23;;;;;;;17.42;13.45;;;21.10;99.90;;;;;;5070731;28;20448;-79
2021/09/10 04:44:49;;;;;;;16.10;13.05;;;21.20;99.90;;;;;;5066805;28;20021;-77
2021/09/10 04:47:15;;;;;;;14.13;12.23;;;21.20;99.90;;;;;;5066328;28;20508;-79
2021/09/10 04:49:41;;;;;;;13.07;11.70;;;21.20;99.90;;;;;;5065017;28;20025;-79
2021/09/10 04:52:07;;;;;;;11.93;10.48;;;21.20;99.90;;;;;;5067301;28;20039;-79
2021/09/10 04:54:33;;;;;;;15.38;11.77;;;21.20;99.90;;;;;;5068160;28;20020;-79
2021/09/10 04:56:59;;;;;;;13.45;11.63;;;21.20;99.90;;;;;;5065863;28;20377;-76
2021/09/10 04:59:25;;;;;;;14.00;11.70;;;21.20;99.90;;;;;;5068445;28;20029;-77
2021/09/10 05:01:51;;;;;;;13.95;11.35;;;21.20;99.90;;;;;;5067584;28;20124;-74
2021/09/10 05:04:18;;;;;;;14.73;11.77;;;21.20;99.90;;;;;;5052090;28;20524;-74
2021/09/10 05:06:44;;;;;;;15.52;12.23;;;21.20;99.90;;;;;;5066497;28;20023;-76
2021/09/10 05:09:09;;;;;;;19.30;11.80;;;21.30;99.90;;;;;;5043927;28;20033;-74
2021/09/10 05:11:35;;;;;;;17.17;12.80;;;21.20;99.90;;;;;;5066026;28;20086;-76
2021/09/10 05:14:01;;;;;;;13.95;11.73;;;21.20;99.90;;;;;;5066766;28;20072;-75
2021/09/10 05:16:27;;;;;;;12.23;9.95;;;21.20;99.90;;;;;;5067642;28;20274;-75
2021/09/10 05:18:52;;;;;;;12.38;10.90;;;21.10;99.90;;;;;;5059825;28;20096;-75
2021/09/10 05:21:18;;;;;;;13.15;10.55;;;21.10;99.90;;;;;;5068452;28;20389;-75
2021/09/10 05:23:44;;;;;;;17.13;11.10;;;21.20;99.90;;;;;;5069803;28;20054;-75
2021/09/10 05:26:09;;;;;;;17.50;12.07;;;21.20;99.90;;;;;;5065225;28;20032;-75
2021/09/10 05:28:35;;;;;;;16.02;10.57;;;21.10;99.90;;;;;;5063159;28;20024;-74
2021/09/10 05:31:01;;;;;;;16.67;11.05;;;21.20;99.90;;;;;;5050611;28;20135;-75
2021/09/10 05:33:26;;;;;;;20.67;11.05;;;21.20;99.90;;;;;;5068522;28;20020;-75
2021/09/10 05:35:52;;;;;;;16.35;11.50;;;21.20;99.90;;;;;;5065972;28;20033;-75
2021/09/10 05:38:17;;;;;;;14.65;11.00;;;21.20;99.90;;;;;;5062131;28;20021;-75
2021/09/10 05:40:43;;;;;;;11.40;9.25;;;21.20;99.90;;;;;;5068600;28;20472;-75
2021/09/10 05:43:09;;;;;;;17.77;11.32;;;21.20;99.90;;;;;;5068106;28;20382;-75
2021/09/10 05:45:35;;;;;;;15.52;11.63;;;21.30;99.90;;;;;;5064488;28;20039;-75
2021/09/10 05:48:01;;;;;;;16.58;11.35;;;21.30;99.90;;;;;;5067038;28;20371;-75
2021/09/10 05:50:27;;;;;;;14.52;10.27;;;21.30;99.90;;;;;;5068064;28;20074;-75
2021/09/10 05:52:53;;;;;;;12.25;10.43;;;21.30;99.90;;;;;;5068463;28;20107;-75
2021/09/10 05:55:18;;;;;;;10.88;9.77;;;21.20;99.90;;;;;;5066655;28;20032;-75
2021/09/10 05:57:44;;;;;;;12.35;9.45;;;21.30;99.90;;;;;;5066346;28;20037;-75
2021/09/10 06:00:11;;;;;;;11.32;9.50;;;21.30;99.90;;;;;;5064613;28;20033;-75
2021/09/10 06:02:38;;;;;;;9.98;8.90;;;21.30;99.90;;;;;;5064979;28;20095;-75
2021/09/10 06:05:04;;;;;;;12.38;9.32;;;21.30;99.90;;;;;;5066962;28;20574;-75
2021/09/10 06:07:32;;;;;;;15.70;11.65;;;21.30;99.90;;;;;;5062376;28;20461;-77
2021/09/10 06:09:57;;;;;;;13.90;10.45;;;21.30;99.90;;;;;;5063603;28;20037;-75
2021/09/10 06:12:23;;;;;;;15.73;9.50;;;21.40;99.90;;;;;;5068870;28;20843;-78
2021/09/10 06:14:50;;;;;;;14.02;10.27;;;21.50;99.90;;;;;;5066945;28;20029;-76
2021/09/10 06:17:16;;;;;;;11.20;9.00;;;21.50;99.90;;;;;;5062670;28;20028;-77
2021/09/10 06:19:41;;;;;;;13.73;9.57;;;21.50;99.90;;;;;;5067518;28;20112;-76
2021/09/10 06:22:07;;;;;;;10.70;9.40;;;21.50;99.90;;;;;;5068466;28;20435;-74
2021/09/10 06:24:33;;;;;;;15.77;9.93;;;21.50;99.90;;;;;;5066896;28;20064;-76
2021/09/10 06:26:59;;;;;;;12.68;10.43;;;21.50;99.90;;;;;;5050074;28;20031;-77
2021/09/10 06:29:24;;;;;;;13.65;8.98;;;21.40;99.90;;;;;;5065805;28;20641;-76
2021/09/10 06:31:51;;;;;;;13.45;9.00;;;21.40;99.90;;;;;;5067664;28;20416;-77
2021/09/10 06:34:21;;;;;;;12.68;9.52;;;21.40;99.90;;;;;;5062529;28;20552;-75
2021/09/10 06:36:48;;;;;;;10.30;8.93;;;21.40;99.90;;;;;;5066718;28;20043;-74
2021/09/10 06:39:18;;;;;;;13.23;9.85;;;21.50;99.90;;;;;;5064734;28;20043;-76
2021/09/10 06:41:57;;;;;;;13.60;9.68;;;21.50;99.90;;;;;;5060206;28;20035;-74
2021/09/10 06:44:23;;;;;;;15.60;9.88;;;21.50;99.90;;;;;;5065383;28;20385;-77
2021/09/10 06:46:49;;;;;;;13.32;9.80;;;21.40;99.90;;;;;;5066586;28;20067;-77
2021/09/10 06:49:14;;;;;;;14.13;9.65;;;21.50;99.90;;;;;;5065830;28;20048;-77
2021/09/10 06:51:41;;;;;;;12.68;9.07;;;21.60;99.90;;;;;;5058125;28;20033;-77
2021/09/10 06:54:07;;;;;;;11.65;10.13;;;21.50;99.90;;;;;;5068202;28;20024;-78
2021/09/10 06:56:33;;;;;;;14.02;9.57;;;21.60;99.90;;;;;;5064438;28;20025;-82
2021/09/10 06:58:59;;;;;;;11.30;8.20;;;21.60;99.90;;;;;;5046767;28;20473;-77
2021/09/10 07:01:25;;;;;;;11.13;8.38;;;21.60;99.90;;;;;;5068452;28;20226;-79
2021/09/10 07:03:51;;;;;;;11.90;8.73;;;21.50;99.90;;;;;;5071009;28;20037;-77
2021/09/10 07:06:17;;;;;;;12.90;9.40;;;21.50;99.90;;;;;;5070977;28;20056;-78
2021/09/10 07:08:43;;;;;;;12.23;8.63;;;21.50;99.90;;;;;;5053408;28;20423;-77
2021/09/10 07:11:09;;;;;;;9.98;8.90;;;21.40;99.90;;;;;;5065734;28;20041;-77
2021/09/10 07:13:35;;;;;;;10.60;7.60;;;21.50;99.90;;;;;;5069998;28;20086;-77
2021/09/10 07:16:01;;;;;;;13.93;8.63;;;21.50;99.90;;;;;;5068662;28;20029;-77
2021/09/10 07:18:26;;;;;;;9.27;8.25;;;21.50;99.90;;;;;;5070680;28;20061;-78
2021/09/10 07:20:52;;;;;;;10.05;7.38;;;21.60;99.90;;;;;;5067480;28;20044;-78
2021/09/10 07:23:18;;;;;;;10.57;7.97;;;21.60;99.90;;;;;;5072858;28;20012;-77
2021/09/10 07:25:44;;;;;;;11.73;7.45;;;21.70;99.90;;;;;;5068356;28;20055;-78
2021/09/10 07:28:09;;;;;;;12.75;7.95;;;21.70;99.90;;;;;;5063651;28;20029;-78
2021/09/10 07:30:35;;;;;;;10.38;7.90;;;21.80;99.90;;;;;;5063841;28;20028;-77
2021/09/10 07:33:01;;;;;;;11.80;7.43;;;21.80;99.90;;;;;;5070444;28;20032;-77
2021/09/10 07:35:27;;;;;;;9.80;7.32;;;21.80;99.90;;;;;;5068010;28;20102;-77
2021/09/10 07:37:53;;;;;;;9.30;7.95;;;21.90;99.90;;;;;;5069273;28;20362;-78
2021/09/10 07:40:19;;;;;;;8.38;7.03;;;22.00;99.90;;;;;;5048835;28;20093;-80
2021/09/10 07:42:45;;;;;;;10.70;8.15;;;22.10;99.90;;;;;;5059991;28;20108;-78
2021/09/10 07:45:12;;;;;;;10.10;8.70;;;22.10;99.90;;;;;;5067439;28;20033;-77
2021/09/10 07:47:39;;;;;;;10.93;7.20;;;22.10;99.90;;;;;;5067287;28;20052;-76
2021/09/10 07:50:06;;;;;;;9.15;7.38;;;22.10;99.90;;;;;;5066176;28;20028;-77
2021/09/10 07:52:32;;;;;;;9.65;8.00;;;22.10;99.90;;;;;;5048558;28;20032;-77
2021/09/10 07:54:57;;;;;;;10.07;7.15;;;22.10;99.90;;;;;;5069434;28;20023;-78
2021/09/10 07:57:24;;;;;;;11.02;6.93;;;22.00;99.90;;;;;;5067008;28;20146;-79
2021/09/10 07:59:55;;;;;;;7.45;6.63;;;22.10;99.90;;;;;;5068713;28;20021;-76
2021/09/10 08:02:22;;;;;;;10.60;7.63;;;22.20;99.90;;;;;;5066838;28;20024;-78
2021/09/10 08:04:47;;;;;;;8.70;7.07;;;22.30;99.90;;;;;;5064554;28;20033;-77
2021/09/10 08:07:13;;;;;;;8.90;7.38;;;22.30;99.90;;;;;;5067496;28;20381;-77
2021/09/10 08:09:39;;;;;;;7.75;7.05;;;22.40;99.90;;;;;;5048589;28;20032;-77
2021/09/10 08:12:05;;;;;;;8.23;7.40;;;22.40;99.90;;;;;;5063777;28;20040;-81
2021/09/10 08:14:31;;;;;;;8.50;7.20;;;22.40;99.90;;;;;;5057339;28;20115;-77
2021/09/10 08:16:56;;;;;;;9.77;6.47;;;22.40;99.90;;;;;;5057156;28;20104;-76
2021/09/10 08:19:23;;;;;;;8.93;7.18;;;22.50;99.90;;;;;;5059778;28;20031;-76
2021/09/10 08:21:49;;;;;;;8.63;6.43;;;22.60;99.90;;;;;;5066628;28;20021;-77
2021/09/10 08:24:15;;;;;;;10.20;6.80;;;22.70;99.90;;;;;;5069613;28;20032;-76
2021/09/10 08:26:41;;;;;;;10.20;7.75;;;22.80;99.90;;;;;;5068873;28;20025;-76
2021/09/10 08:29:06;;;;;;;9.43;7.15;;;22.80;99.90;;;;;;5068985;28;20017;-76
2021/09/10 08:31:33;;;;;;;8.57;7.07;;;22.80;99.90;;;;;;5065207;28;20036;-76
2021/09/10 08:33:59;;;;;;;7.85;7.05;;;22.90;99.90;;;;;;5068586;28;20420;-77
2021/09/10 08:36:24;;;;;;;8.30;5.85;;;23.00;99.90;;;;;;5051308;28;20035;-76
2021/09/10 08:38:50;;;;;;;11.65;7.82;;;22.90;99.90;;;;;;5066066;28;20032;-76
2021/09/10 08:41:18;;;;;;;12.98;7.38;;;22.90;99.90;;;;;;5061037;28;20429;-76
2021/09/10 08:43:48;;;;;;;9.10;6.93;;;22.90;99.90;;;;;;5066112;28;20107;-76
2021/09/10 08:46:14;;;;;;;9.63;7.00;;;22.80;99.90;;;;;;5067251;28;20116;-76
2021/09/10 08:48:44;;;;;;;7.97;7.10;;;22.80;99.90;;;;;;5069310;28;20031;-76
2021/09/10 08:51:10;;;;;;;7.65;6.93;;;22.80;99.90;;;;;;5065764;28;20037;-76
2021/09/10 08:53:35;;;;;;;9.40;7.07;;;22.80;99.90;;;;;;5066709;28;20109;-76
2021/09/10 08:56:01;;;;;;;11.35;8.05;;;22.80;99.90;;;;;;5066815;28;20024;-76
2021/09/10 08:58:26;;;;;;;7.63;6.82;;;22.70;99.90;;;;;;5048962;28;21630;-76
2021/09/10 09:00:56;;;;;;;9.45;6.85;;;22.80;99.90;;;;;;5067240;28;20399;-76
2021/09/10 09:03:27;;;;;;;8.73;7.22;;;22.90;99.90;;;;;;5069048;28;20099;-76
2021/09/10 09:05:53;;;;;;;12.02;8.23;;;23.00;99.90;;;;;;5065989;28;20032;-77
2021/09/10 09:08:18;;;;;;;10.85;7.03;;;22.90;99.90;;;;;;5067472;28;20493;-76
2021/09/10 09:10:50;;;;;;;11.48;7.22;;;23.00;99.90;;;;;;5068259;28;20047;-77
2021/09/10 09:13:16;;;;;;;7.00;6.40;;;23.10;99.90;;;;;;5062760;28;20422;-77
2021/09/10 09:15:42;;;;;;;9.45;7.22;;;23.30;99.90;;;;;;5076388;28;20359;-76
2021/09/10 09:18:07;;;;;;;8.38;6.70;;;23.30;99.90;;;;;;5063671;28;20073;-76
2021/09/10 09:20:34;;;;;;;7.50;6.47;;;23.50;99.90;;;;;;5067272;28;20107;-77
2021/09/10 09:23:10;;;;;;;9.15;6.40;;;23.50;99.90;;;;;;5066848;28;20051;-76
2021/09/10 09:25:43;;;;;;;8.65;6.55;;;23.60;99.90;;;;;;5065294;28;20021;-76
2021/09/10 09:28:28;;;;;;;9.38;6.85;;;23.60;99.90;;;;;;5065667;28;20029;-77
2021/09/10 09:30:55;;;;;;;9.05;6.18;;;23.70;99.90;;;;;;5068133;28;20362;-76
2021/09/10 09:33:30;;;;;;;6.38;5.78;;;23.70;99.90;;;;;;5063582;28;20546;-76
2021/09/10 09:35:57;;;;;;;10.57;5.75;;;24.00;99.90;;;;;;5065623;28;20481;-76
2021/09/10 09:38:32;;;;;;;7.00;5.78;;;24.20;99.90;;;;;;5065210;28;20477;-76
2021/09/10 09:41:00;;;;;;;8.05;5.82;;;24.20;99.90;;;;;;5066359;28;20629;-76
2021/09/10 09:43:31;;;;;;;7.38;6.15;;;24.30;99.90;;;;;;5049722;28;20028;-76
2021/09/10 09:45:57;;;;;;;6.57;5.97;;;24.30;99.90;;;;;;5065960;28;20044;-77
2021/09/10 09:48:26;;;;;;;8.20;5.82;;;24.20;99.90;;;;;;5066711;28;20067;-77
2021/09/10 09:50:53;;;;;;;7.68;6.88;;;24.20;99.90;;;;;;5048689;28;20056;-77
2021/09/10 09:53:22;;;;;;;8.90;6.63;;;24.10;99.90;;;;;;5066777;28;20033;-76
2021/09/10 09:55:48;;;;;;;7.75;6.65;;;23.90;99.90;;;;;;5046775;28;20029;-76
2021/09/10 09:58:14;;;;;;;8.05;6.57;;;24.00;99.90;;;;;;5067891;28;20082;-77
2021/09/10 10:00:42;;;;;;;7.90;6.53;;;24.00;99.90;;;;;;5066787;28;20500;-76
2021/09/10 10:03:08;;;;;;;6.57;5.80;;;24.00;99.90;;;;;;5065581;28;20059;-76
2021/09/10 10:05:49;;;;;;;8.07;6.22;;;24.10;99.90;;;;;;5068514;28;20044;-76
2021/09/10 10:08:31;;;;;;;10.10;5.85;;;24.10;99.90;;;;;;5066633;28;20036;-76
2021/09/10 10:11:08;;;;;;;10.77;4.95;;;24.10;99.90;;;;;;5065983;28;20067;-77
2021/09/10 10:13:34;;;;;;;9.82;6.47;;;24.30;99.90;;;;;;5067079;28;20029;-76
2021/09/10 10:16:00;;;;;;;9.13;5.72;;;24.20;99.90;;;;;;5030761;28;20459;-76
2021/09/10 10:18:43;;;;;;;8.35;5.88;;;24.40;99.90;;;;;;5061731;28;20104;-76
2021/09/10 10:21:11;;;;;;;9.75;7.45;;;24.30;99.90;;;;;;5062894;28;20040;-76
2021/09/10 10:23:45;;;;;;;7.15;5.75;;;24.40;99.90;;;;;;5068479;28;20028;-76
2021/09/10 10:26:15;;;;;;;8.18;5.40;;;24.40;99.90;;;;;;5066787;28;20031;-76
2021/09/10 10:28:53;;;;;;;7.03;5.55;;;24.40;99.90;;;;;;5063256;28;20032;-76
2021/09/10 10:31:58;;;;;;;6.15;5.45;;;24.40;99.90;;;;;;5049597;28;20433;-76
2021/09/10 10:34:25;;;;;;;10.07;6.05;;;24.50;99.90;;;;;;5071691;28;20067;-76
2021/09/10 10:36:51;;;;;;;6.60;5.88;;;24.50;99.90;;;;;;5053505;28;20056;-76
2021/09/10 10:39:20;;;;;;;8.05;5.28;;;24.30;99.90;;;;;;5052984;28;20048;-75
2021/09/10 10:41:56;;;;;;;6.75;5.63;;;24.30;99.90;;;;;;5069897;28;20036;-76
2021/09/10 10:44:34;;;;;;;8.52;5.95;;;24.40;99.90;;;;;;5052851;28;20052;-75
2021/09/10 10:47:12;;;;;;;5.68;4.93;;;24.60;99.90;;;;;;5068809;28;20028;-76
2021/09/10 10:49:43;;;;;;;9.48;5.43;;;24.60;99.90;;;;;;5067638;28;20481;-75
2021/09/10 10:52:33;;;;;;;6.93;6.13;;;24.60;99.90;;;;;;5070446;28;20029;-76
2021/09/10 10:55:19;;;;;;;6.07;5.57;;;24.60;99.90;;;;;;5070098;28;20097;-76
2021/09/10 10:58:15;;;;;;;8.13;6.40;;;24.60;99.90;;;;;;5069128;28;20439;-76
2021/09/10 11:00:48;;;;;;;9.43;6.13;;;24.50;99.90;;;;;;5066864;28;20044;-76
2021/09/10 11:03:14;;;;;;;6.93;6.32;;;24.30;99.90;;;;;;5071729;28;20035;-76
2021/09/10 11:05:41;;;;;;;9.82;5.72;;;24.30;99.90;;;;;;5054434;28;20025;-75
2021/09/10 11:08:07;;;;;;;7.53;5.85;;;24.20;99.90;;;;;;5068368;28;20051;-76
2021/09/10 11:10:32;;;;;;;7.75;5.20;;;24.10;99.90;;;;;;5067987;28;20385;-76
2021/09/10 11:12:59;;;;;;;10.30;6.15;;;24.10;99.90;;;;;;5069742;28;20478;-76
2021/09/10 11:15:24;;;;;;;9.02;6.65;;;24.10;99.90;;;;;;5067366;28;20037;-76
2021/09/10 11:18:13;;;;;;;8.82;5.97;;;24.10;99.90;;;;;;5049723;28;20451;-76
2021/09/10 11:20:43;;;;;;;7.75;6.05;;;24.00;99.90;;;;;;5049897;28;20020;-76
2021/09/10 11:23:32;;;;;;;6.90;6.25;;;24.00;99.90;;;;;;5062949;28;20099;-77
2021/09/10 11:25:58;;;;;;;8.60;7.70;;;23.90;99.90;;;;;;5067354;28;20035;-76
2021/09/10 11:28:28;;;;;;;9.63;8.82;;;23.80;99.90;;;;;;5070426;28;20020;-77
2021/09/10 11:30:54;;;;;;;14.02;10.43;;;23.80;99.90;;;;;;5072312;28;20047;-77
2021/09/10 11:33:21;;;;;;;10.20;9.18;;;23.80;99.90;;;;;;5068647;28;20541;-76
2021/09/10 11:35:49;;;;;;;13.27;10.18;;;23.80;99.90;;;;;;5069663;28;20025;-77
2021/09/10 11:38:22;;;;;;;11.73;10.38;;;23.60;99.90;;;;;;5052825;28;20111;-77
2021/09/10 11:40:52;;;;;;;;;;;23.60;99.90;;;;;;5066747;28;20020;-78
2021/09/10 11:43:26;;;;;;;12.20;10.80;;;23.60;99.90;;;;;;5069483;28;19915;-78
2021/09/10 11:45:58;;;;;;;14.27;11.07;;;23.60;99.90;;;;;;5064475;28;20044;-79
2021/09/10 11:48:28;;;;;;;15.60;11.80;;;23.50;99.90;;;;;;5069065;28;20115;-79
2021/09/10 11:50:56;;;;;;;19.20;13.32;;;23.40;99.90;;;;;;5067302;28;20065;-78
2021/09/10 11:53:30;;;;;;;13.63;12.23;;;23.40;99.90;;;;;;5067376;28;20108;-77
2021/09/10 11:56:03;;;;;;;14.13;12.20;;;23.40;99.90;;;;;;5067293;28;20025;-79
2021/09/10 11:58:42;;;;;;;14.00;12.52;;;23.50;99.90;;;;;;5072516;28;20032;-78
2021/09/10 12:01:13;;;;;;;16.98;12.60;;;23.40;99.90;;;;;;5069317;28;20024;-78
2021/09/10 12:03:59;;;;;;;14.18;12.75;;;23.30;99.90;;;;;;5069292;28;20041;-77
2021/09/10 12:06:35;;;;;;;17.67;13.60;;;23.40;99.90;;;;;;5068630;28;20112;-78
2021/09/10 12:09:16;;;;;;;17.27;14.32;;;23.40;99.90;;;;;;5068741;28;20358;-78
2021/09/10 12:12:15;;;;;;;16.35;13.70;;;23.50;99.90;;;;;;5065266;28;20062;-78
2021/09/10 12:14:57;;;;;;;18.05;14.73;;;23.50;99.90;;;;;;5069828;28;20478;-78
2021/09/10 12:17:28;;;;;;;16.85;13.07;;;23.40;99.90;;;;;;5069793;28;20020;-77
2021/09/10 12:19:55;;;;;;;18.30;14.10;;;23.30;99.90;;;;;;5065893;28;20028;-77
2021/09/10 12:22:36;;;;;;;18.67;14.65;;;23.30;99.90;;;;;;5068303;28;20017;-77
2021/09/10 12:25:23;;;;;;;22.88;14.68;;;23.40;99.90;;;;;;5069103;28;20112;-78
2021/09/10 12:27:54;;;;;;;25.48;15.73;;;23.50;99.90;;;;;;5067258;28;20028;-76
2021/09/10 12:30:22;;;;;;;21.92;15.13;;;23.50;99.90;;;;;;5068778;28;20497;-76
2021/09/10 12:32:48;;;;;;;13.45;11.82;;;23.40;99.90;;;;;;5069521;28;20040;-77
2021/09/10 12:35:14;;;;;;;15.75;11.70;;;23.20;99.90;;;;;;5056956;28;20108;-77
2021/09/10 12:37:40;;;;;;;14.73;12.57;;;23.30;99.90;;;;;;5068092;28;20585;-77
2021/09/10 12:40:07;;;;;;;11.77;10.68;;;23.40;99.90;;;;;;5068025;28;20028;-77